Bayandelger, Mongolia
Current Conditions -  °F | °C
As of 12:30 PM on Sunday 26 Oct 2014 (Local Time) from ZMUB Reporting Station
Broken Clouds Broken Clouds  
Wind Chill: 28°   Ceiling: 10000
Heat Index: 37°   Visibility: 6mi
Dew Point: -4°   Wind: 16mph
Humidity: 17%   Direction: 140°SE
Pressure: 30.36"   Gusts: NA
Location:  45.73°N, 112.37°E
Report Text: ZMUB 260430Z 14007MPS 120V180 9999 FEW033 BKN100 03/M20 Q1028 NOSIG RMK QFE662.7 17 MOP
Loading
Personal Weather Stations






























Interactive Weather Map
Tropical Storm Tracking
New forecast layout! Learn more

10-Day Weather Forecast

Advertisements
Track Severe Weather on mobile